createdAt,value
2018-06-09T00:00:17.510Z,67.91
2018-06-09T00:02:45.266Z,67.94
2018-06-09T00:05:13.004Z,67.90
2018-06-09T00:07:40.674Z,67.36
2018-06-09T00:10:08.352Z,67.56
2018-06-09T00:12:36.068Z,67.67
2018-06-09T00:15:03.844Z,67.60
2018-06-09T00:17:31.647Z,68.14
2018-06-09T00:19:59.413Z,67.75
2018-06-09T00:22:27.208Z,67.88
2018-06-09T00:24:54.872Z,68.31
2018-06-09T00:27:22.638Z,68.59
2018-06-09T00:29:50.338Z,68.13
2018-06-09T00:32:17.989Z,68.09
2018-06-09T00:34:45.564Z,68.29
2018-06-09T00:37:13.224Z,68.42
2018-06-09T00:39:40.842Z,68.80
2018-06-09T00:42:08.469Z,69.70
2018-06-09T00:44:36.185Z,68.85
2018-06-09T00:47:03.972Z,68.99
2018-06-09T00:49:31.698Z,68.34
2018-06-09T00:51:59.359Z,68.93
2018-06-09T00:54:27.227Z,68.76
2018-06-09T00:56:55.108Z,68.86
2018-06-09T00:59:22.831Z,68.73
2018-06-09T01:01:50.518Z,68.30
2018-06-09T01:04:18.180Z,66.85
2018-06-09T01:06:45.803Z,67.52
2018-06-09T01:09:13.450Z,68.38
2018-06-09T01:11:41.054Z,68.91
2018-06-09T01:14:08.676Z,69.23
2018-06-09T01:16:36.265Z,69.47
2018-06-09T01:19:03.860Z,70.56
2018-06-09T01:21:31.459Z,70.81
2018-06-09T01:23:59.069Z,70.84
2018-06-09T01:26:26.686Z,70.81
2018-06-09T01:28:54.288Z,71.43
2018-06-09T01:31:21.903Z,71.50
2018-06-09T01:33:49.528Z,71.36
2018-06-09T01:36:17.140Z,71.00
2018-06-09T01:38:44.752Z,70.83
2018-06-09T01:41:12.382Z,71.40
2018-06-09T01:43:39.990Z,71.03
2018-06-09T01:46:07.653Z,71.96
2018-06-09T01:48:35.262Z,72.18
2018-06-09T01:51:02.920Z,72.40
2018-06-09T01:53:30.598Z,71.41
2018-06-09T01:55:58.130Z,72.15
2018-06-09T01:58:25.738Z,71.31
2018-06-09T02:00:53.399Z,71.30
2018-06-09T02:03:21.004Z,71.31
2018-06-09T02:05:48.574Z,71.09
2018-06-09T02:08:16.194Z,71.01
2018-06-09T02:10:43.813Z,71.36
2018-06-09T02:13:11.452Z,72.10
2018-06-09T02:15:38.999Z,71.62
2018-06-09T02:18:06.623Z,71.58
2018-06-09T02:20:34.267Z,72.63
2018-06-09T02:23:01.874Z,73.45
2018-06-09T02:25:29.522Z,72.89
2018-06-09T02:27:57.154Z,73.33
2018-06-09T02:30:24.761Z,72.84
2018-06-09T02:32:52.376Z,73.08
2018-06-09T02:35:19.965Z,73.26
2018-06-09T02:37:48.397Z,73.17
2018-06-09T02:40:16.059Z,72.00
2018-06-09T02:42:43.742Z,72.22
2018-06-09T02:45:11.361Z,71.69
2018-06-09T02:47:39.024Z,72.83
2018-06-09T02:50:06.605Z,72.44
2018-06-09T02:52:34.292Z,72.71
2018-06-09T02:55:01.995Z,72.85
2018-06-09T02:57:29.564Z,73.04
2018-06-09T02:59:57.220Z,72.55
2018-06-09T03:02:24.845Z,72.60
2018-06-09T03:04:52.422Z,72.78
2018-06-09T03:07:20.061Z,72.44
2018-06-09T03:09:47.722Z,72.98
2018-06-09T03:12:15.339Z,73.32
2018-06-09T03:14:42.977Z,73.24
2018-06-09T03:17:10.624Z,73.83
2018-06-09T03:19:38.252Z,74.12
2018-06-09T03:22:05.869Z,73.94
2018-06-09T03:24:33.484Z,73.29
2018-06-09T03:27:01.085Z,72.08
2018-06-09T03:29:28.732Z,72.15
2018-06-09T03:31:56.441Z,71.17
2018-06-09T03:34:23.970Z,71.08
2018-06-09T03:36:51.560Z,71.03
2018-06-09T03:39:19.226Z,70.77
2018-06-09T03:41:46.850Z,70.69
2018-06-09T03:44:14.558Z,70.17
2018-06-09T03:46:42.165Z,70.28
2018-06-09T03:49:09.811Z,70.04
2018-06-09T03:51:37.371Z,69.32
2018-06-09T03:54:05.134Z,69.51
2018-06-09T03:56:32.775Z,68.75
2018-06-09T03:59:00.467Z,68.86
2018-06-09T04:01:28.202Z,68.32
2018-06-09T04:03:55.803Z,68.15
2018-06-09T04:06:23.339Z,68.42
2018-06-09T04:08:50.970Z,67.49
2018-06-09T04:11:18.569Z,67.44
2018-06-09T04:13:46.180Z,66.79
2018-06-09T04:16:13.824Z,66.49
2018-06-09T04:18:41.490Z,65.77
2018-06-09T04:21:09.118Z,65.81
2018-06-09T04:23:36.680Z,66.25
2018-06-09T04:26:04.555Z,66.11
2018-06-09T04:28:32.170Z,65.94
2018-06-09T04:30:59.842Z,65.30
2018-06-09T04:33:27.539Z,65.37
2018-06-09T04:35:55.236Z,65.29
2018-06-09T04:38:22.895Z,64.82
2018-06-09T04:40:50.619Z,64.43
2018-06-09T04:43:18.288Z,64.94
2018-06-09T04:45:45.950Z,64.63
2018-06-09T04:48:13.544Z,64.66
2018-06-09T04:50:41.189Z,64.28
2018-06-09T04:53:08.857Z,64.18
2018-06-09T04:55:36.423Z,63.89
2018-06-09T04:58:04.022Z,63.06
2018-06-09T05:00:31.693Z,63.45
2018-06-09T05:02:59.343Z,63.02
2018-06-09T05:05:26.957Z,62.84
2018-06-09T05:07:54.607Z,62.96
2018-06-09T05:10:22.265Z,62.42
2018-06-09T05:12:49.957Z,60.92
2018-06-09T05:15:17.554Z,60.21
2018-06-09T05:17:45.193Z,60.52
2018-06-09T05:20:12.815Z,59.45
2018-06-09T05:22:40.400Z,59.23
2018-06-09T05:25:08.273Z,58.89
2018-06-09T05:27:35.850Z,59.25
2018-06-09T05:30:04.071Z,58.85
2018-06-09T05:32:31.743Z,58.06
2018-06-09T05:34:59.437Z,58.39
2018-06-09T05:37:27.132Z,57.76
2018-06-09T05:39:54.810Z,57.51
2018-06-09T05:42:22.493Z,57.39
2018-06-09T05:44:50.161Z,57.34
2018-06-09T05:47:17.770Z,56.30
2018-06-09T05:49:45.442Z,56.20
2018-06-09T05:52:13.144Z,56.58
2018-06-09T05:54:40.809Z,55.15
2018-06-09T05:57:08.456Z,55.48
2018-06-09T05:59:36.100Z,54.99
2018-06-09T06:02:03.779Z,55.09
2018-06-09T06:04:31.461Z,54.87
2018-06-09T06:06:59.190Z,54.02
2018-06-09T06:09:26.854Z,54.66
2018-06-09T06:11:54.538Z,53.80
2018-06-09T06:14:22.171Z,53.28
2018-06-09T06:16:49.836Z,52.82
2018-06-09T06:19:17.485Z,52.11
2018-06-09T06:21:45.039Z,51.71
2018-06-09T06:24:12.724Z,51.98
2018-06-09T06:26:40.423Z,50.52
2018-06-09T06:29:08.068Z,50.07
2018-06-09T06:31:35.724Z,50.02
2018-06-09T06:34:03.400Z,48.52
2018-06-09T06:36:31.104Z,48.64
2018-06-09T06:38:58.698Z,47.03
2018-06-09T06:41:26.406Z,46.73
2018-06-09T06:43:55.253Z,46.91
2018-06-09T06:46:22.920Z,46.30
2018-06-09T06:48:50.563Z,46.04
2018-06-09T06:51:18.186Z,44.45
2018-06-09T06:53:45.781Z,44.14
2018-06-09T06:56:13.445Z,43.14
2018-06-09T06:58:41.078Z,42.89
2018-06-09T07:01:08.696Z,42.99
2018-06-09T07:03:36.319Z,43.87
2018-06-09T07:06:04.149Z,43.70
2018-06-09T07:08:31.741Z,43.07
2018-06-09T07:10:59.573Z,42.70
2018-06-09T07:13:27.287Z,42.78
2018-06-09T07:15:54.827Z,42.26
2018-06-09T07:18:22.503Z,40.80
2018-06-09T07:20:50.106Z,41.48
2018-06-09T07:23:17.687Z,41.48
2018-06-09T07:25:45.372Z,40.79
2018-06-09T07:28:12.961Z,40.93
2018-06-09T07:30:40.573Z,40.25
2018-06-09T07:33:08.163Z,40.02
2018-06-09T07:35:35.762Z,40.23
2018-06-09T07:38:03.391Z,39.91
2018-06-09T07:40:30.969Z,40.56
2018-06-09T07:42:58.602Z,40.77
2018-06-09T07:45:26.222Z,40.44
2018-06-09T07:47:53.868Z,40.04
2018-06-09T07:50:21.524Z,40.68
2018-06-09T07:52:49.188Z,40.41
2018-06-09T07:55:16.812Z,40.48
2018-06-09T07:57:44.509Z,41.52
2018-06-09T08:00:19.242Z,41.06
2018-06-09T08:02:46.801Z,41.57
2018-06-09T08:05:14.428Z,41.88
2018-06-09T08:07:42.028Z,41.20
2018-06-09T08:10:10.467Z,40.68
2018-06-09T08:12:38.181Z,41.22
2018-06-09T08:15:05.830Z,39.83
2018-06-09T08:17:33.498Z,40.05
2018-06-09T08:20:01.213Z,38.73
2018-06-09T08:22:28.919Z,40.38
2018-06-09T08:24:57.225Z,40.71
2018-06-09T08:27:24.860Z,39.17
2018-06-09T08:29:52.505Z,38.95
2018-06-09T08:32:20.124Z,39.11
2018-06-09T08:34:47.735Z,39.57
2018-06-09T08:37:15.429Z,38.17
2018-06-09T08:39:43.005Z,39.01
2018-06-09T08:42:10.668Z,37.93
2018-06-09T08:44:38.262Z,38.76
2018-06-09T08:47:05.882Z,38.80
2018-06-09T08:49:33.552Z,38.05
2018-06-09T08:52:01.183Z,39.12
2018-06-09T08:54:28.786Z,38.28
2018-06-09T08:56:56.498Z,38.79
2018-06-09T08:59:24.128Z,38.97
2018-06-09T09:01:51.734Z,38.76
2018-06-09T09:04:19.298Z,38.78
2018-06-09T09:06:46.890Z,38.99
2018-06-09T09:09:14.554Z,39.29
2018-06-09T09:11:42.270Z,38.08
2018-06-09T09:14:09.897Z,39.04
2018-06-09T09:16:37.523Z,38.21
2018-06-09T09:19:05.213Z,39.01
2018-06-09T09:21:32.860Z,39.12
2018-06-09T09:24:00.580Z,38.13
2018-06-09T09:26:28.264Z,36.28
2018-06-09T09:28:55.879Z,37.53
2018-06-09T09:31:23.523Z,37.47
2018-06-09T09:33:51.216Z,36.61
2018-06-09T09:36:18.822Z,36.46
2018-06-09T09:38:46.511Z,36.40
2018-06-09T09:41:14.096Z,36.40
2018-06-09T09:43:41.747Z,36.90
2018-06-09T09:46:09.319Z,36.47
2018-06-09T09:48:37.074Z,35.64
2018-06-09T09:51:05.107Z,35.52
2018-06-09T09:53:33.323Z,34.89
2018-06-09T09:56:01.051Z,35.17
2018-06-09T09:58:29.169Z,34.40
2018-06-09T10:00:56.827Z,35.01
2018-06-09T10:03:25.261Z,33.32
2018-06-09T10:05:52.871Z,33.98
2018-06-09T10:08:20.552Z,34.20
2018-06-09T10:10:48.250Z,34.89
2018-06-09T10:13:15.902Z,34.51
2018-06-09T10:15:43.485Z,33.30
2018-06-09T10:18:11.089Z,32.84
2018-06-09T10:20:38.733Z,33.68
2018-06-09T10:23:06.333Z,33.74
2018-06-09T10:25:34.292Z,33.01
2018-06-09T10:28:01.903Z,32.92
2018-06-09T10:30:29.521Z,33.06
2018-06-09T10:32:57.096Z,33.44
2018-06-09T10:35:24.815Z,34.90
2018-06-09T10:37:52.395Z,35.57
2018-06-09T10:40:20.023Z,35.22
2018-06-09T10:42:48.693Z,35.44
2018-06-09T10:45:16.446Z,35.32
2018-06-09T10:47:44.059Z,36.42
2018-06-09T10:50:11.641Z,36.01
2018-06-09T10:52:39.296Z,36.71
2018-06-09T10:55:07.015Z,36.56
2018-06-09T10:57:34.724Z,35.66
2018-06-09T11:00:02.325Z,35.73
2018-06-09T11:02:29.954Z,34.71
2018-06-09T11:04:57.571Z,33.84
2018-06-09T11:07:25.172Z,34.37
2018-06-09T11:09:52.817Z,33.84
2018-06-09T11:12:20.430Z,34.74
2018-06-09T11:14:48.121Z,34.54
2018-06-09T11:17:15.758Z,34.18
2018-06-09T11:19:43.334Z,34.14
2018-06-09T11:22:10.998Z,34.75
2018-06-09T11:24:38.616Z,34.49
2018-06-09T11:27:06.266Z,33.88
2018-06-09T11:29:33.849Z,34.51
2018-06-09T11:32:01.528Z,33.89
2018-06-09T11:34:29.177Z,34.04
2018-06-09T11:36:56.789Z,34.97
2018-06-09T11:39:24.539Z,34.19
2018-06-09T11:41:52.273Z,33.19
2018-06-09T11:44:19.877Z,32.02
2018-06-09T11:46:47.567Z,32.00
2018-06-09T11:49:15.183Z,30.64
2018-06-09T11:51:43.091Z,31.09
2018-06-09T11:54:10.731Z,30.26
2018-06-09T11:56:38.320Z,28.36
2018-06-09T11:59:06.414Z,28.10
2018-06-09T12:01:33.972Z,26.35
2018-06-09T12:04:01.542Z,26.08
2018-06-09T12:06:29.298Z,24.29
2018-06-09T12:08:56.997Z,23.36
2018-06-09T12:11:24.656Z,22.90
2018-06-09T12:13:52.257Z,22.77
2018-06-09T12:16:19.945Z,23.01
2018-06-09T12:18:47.569Z,23.04
2018-06-09T12:21:15.489Z,23.30
2018-06-09T12:23:43.381Z,23.38
2018-06-09T12:26:10.967Z,24.53
2018-06-09T12:28:38.607Z,24.77
2018-06-09T12:31:06.265Z,26.23
2018-06-09T12:33:33.949Z,27.18
2018-06-09T12:36:01.747Z,27.01
2018-06-09T12:38:30.392Z,27.16
2018-06-09T12:40:58.037Z,27.22
2018-06-09T12:43:25.687Z,27.14
2018-06-09T12:45:53.231Z,26.19
2018-06-09T12:48:20.798Z,26.98
2018-06-09T12:50:48.432Z,27.28
2018-06-09T12:53:16.071Z,26.63
2018-06-09T12:55:43.710Z,27.84
2018-06-09T12:58:11.350Z,27.02
2018-06-09T13:00:38.977Z,26.34
2018-06-09T13:03:06.672Z,25.63
2018-06-09T13:05:34.387Z,25.09
2018-06-09T13:08:03.118Z,24.34
2018-06-09T13:10:30.752Z,24.42
2018-06-09T13:12:58.454Z,23.15
2018-06-09T13:15:26.105Z,23.49
2018-06-09T13:17:53.749Z,21.87
2018-06-09T13:20:22.129Z,22.38
2018-06-09T13:22:49.827Z,21.11
2018-06-09T13:25:17.470Z,19.98
2018-06-09T13:27:45.088Z,19.32
2018-06-09T13:30:14.724Z,18.05
2018-06-09T13:32:42.436Z,16.96
2018-06-09T13:35:10.004Z,16.02
2018-06-09T13:37:37.804Z,14.41
2018-06-09T13:40:05.741Z,14.18
2018-06-09T13:42:33.317Z,14.47
2018-06-09T13:45:01.039Z,15.50
2018-06-09T13:47:28.716Z,15.30
2018-06-09T13:49:56.263Z,14.55
2018-06-09T13:52:23.885Z,16.08
2018-06-09T13:54:51.547Z,17.52
2018-06-09T13:57:19.221Z,19.49
2018-06-09T13:59:46.842Z,19.13
2018-06-09T14:02:14.464Z,19.67
2018-06-09T14:04:42.098Z,20.12
2018-06-09T14:07:10.048Z,20.90
2018-06-09T14:09:37.672Z,20.77
2018-06-09T14:12:05.452Z,22.53
2018-06-09T14:14:33.466Z,23.70
2018-06-09T14:17:01.290Z,23.18
2018-06-09T14:19:28.975Z,22.53
2018-06-09T14:21:56.698Z,22.94
2018-06-09T14:24:24.290Z,23.13
2018-06-09T14:26:52.598Z,22.78
2018-06-09T14:29:20.331Z,22.85
2018-06-09T14:31:47.917Z,22.13
2018-06-09T14:34:15.487Z,21.41
2018-06-09T14:36:43.165Z,21.93
2018-06-09T14:39:10.814Z,21.90
2018-06-09T14:41:38.493Z,22.74
2018-06-09T14:44:06.227Z,23.87
2018-06-09T14:46:33.869Z,25.12
2018-06-09T14:49:01.531Z,24.56
2018-06-09T14:51:29.115Z,25.66
2018-06-09T14:53:56.962Z,24.69
2018-06-09T14:56:24.593Z,26.09
2018-06-09T14:58:52.162Z,26.56
2018-06-09T15:01:19.749Z,28.67
2018-06-09T15:03:47.390Z,33.70
2018-06-09T15:06:14.973Z,38.96
2018-06-09T15:08:42.574Z,42.79
2018-06-09T15:11:10.290Z,42.98
2018-06-09T15:13:37.830Z,46.96
2018-06-09T15:16:05.397Z,51.93
2018-06-09T15:18:33.046Z,57.42
2018-06-09T15:21:00.687Z,64.39
2018-06-09T15:23:28.282Z,68.17
2018-06-09T15:25:55.871Z,69.29
2018-06-09T15:28:23.556Z,67.94
2018-06-09T15:30:51.232Z,66.06
2018-06-09T15:33:18.853Z,66.59
2018-06-09T15:35:46.453Z,73.14
2018-06-09T15:38:14.103Z,74.52
2018-06-09T15:40:41.815Z,76.11
2018-06-09T15:43:09.477Z,75.13
2018-06-09T15:45:37.347Z,71.31
2018-06-09T15:48:04.985Z,68.09
2018-06-09T15:50:32.618Z,63.52
2018-06-09T15:53:00.271Z,59.15
2018-06-09T15:55:27.823Z,57.83
2018-06-09T15:57:55.509Z,55.66
2018-06-09T16:00:23.224Z,50.68
2018-06-09T16:02:50.852Z,49.36
2018-06-09T16:05:18.461Z,45.55
2018-06-09T16:07:46.174Z,40.40
2018-06-09T16:10:13.738Z,35.10
2018-06-09T16:12:41.537Z,37.52
2018-06-09T16:15:09.234Z,35.61
2018-06-09T16:17:36.993Z,33.59
2018-06-09T16:20:04.779Z,30.74
2018-06-09T16:22:32.440Z,35.24
2018-06-09T16:25:01.158Z,36.28
2018-06-09T16:27:28.816Z,34.76
2018-06-09T16:29:56.683Z,32.00
2018-06-09T16:32:24.345Z,31.45
2018-06-09T16:34:51.982Z,28.76
2018-06-09T16:37:19.602Z,29.29
2018-06-09T16:39:47.219Z,28.81
2018-06-09T16:42:14.848Z,28.56
2018-06-09T16:44:42.553Z,29.05
2018-06-09T16:47:10.151Z,28.90
2018-06-09T16:49:37.835Z,28.13
2018-06-09T16:52:05.714Z,27.33
2018-06-09T16:54:33.383Z,25.79
2018-06-09T16:57:01.031Z,24.21
2018-06-09T16:59:28.659Z,24.85
2018-06-09T17:01:56.594Z,25.15
2018-06-09T17:04:24.229Z,27.00
2018-06-09T17:06:51.921Z,28.78
2018-06-09T17:09:19.506Z,29.47
2018-06-09T17:11:47.106Z,31.91
2018-06-09T17:14:14.738Z,29.72
2018-06-09T17:16:42.414Z,29.29
2018-06-09T17:19:10.063Z,32.45
2018-06-09T17:21:37.719Z,34.84
2018-06-09T17:24:05.328Z,38.33
2018-06-09T17:26:32.986Z,41.43
2018-06-09T17:29:00.696Z,44.10
2018-06-09T17:31:28.407Z,44.65
2018-06-09T17:33:56.070Z,47.12
2018-06-09T17:36:23.931Z,47.28
2018-06-09T17:38:51.589Z,47.92
2018-06-09T17:41:19.225Z,48.70
2018-06-09T17:43:46.818Z,49.37
2018-06-09T17:46:14.443Z,50.27
2018-06-09T17:48:42.026Z,51.96
2018-06-09T17:51:09.763Z,52.74
2018-06-09T17:53:37.299Z,54.58
2018-06-09T17:56:04.920Z,55.16
2018-06-09T17:58:32.543Z,56.33
2018-06-09T18:01:00.143Z,57.33
2018-06-09T18:03:27.814Z,57.69
2018-06-09T18:05:55.474Z,58.16
2018-06-09T18:08:23.038Z,58.08
2018-06-09T18:10:50.640Z,58.73
2018-06-09T18:13:18.325Z,57.90
2018-06-09T18:15:46.082Z,59.41
2018-06-09T18:18:13.720Z,59.66
2018-06-09T18:20:41.348Z,60.15
2018-06-09T18:23:08.958Z,60.40
2018-06-09T18:25:36.570Z,60.45
2018-06-09T18:28:04.202Z,60.66
2018-06-09T18:30:31.789Z,60.50
2018-06-09T18:32:59.425Z,62.09
2018-06-09T18:35:27.100Z,60.38
2018-06-09T18:37:54.684Z,62.05
2018-06-09T18:40:22.337Z,61.92
2018-06-09T18:42:50.095Z,62.89
2018-06-09T18:45:17.741Z,63.55
2018-06-09T18:47:45.405Z,63.37
2018-06-09T18:50:13.005Z,64.10
2018-06-09T18:52:41.592Z,64.13
2018-06-09T18:55:09.242Z,64.05
2018-06-09T18:57:37.773Z,64.75
2018-06-09T19:00:05.697Z,64.85
2018-06-09T19:02:33.330Z,64.00
2018-06-09T19:05:00.945Z,64.15
2018-06-09T19:07:28.554Z,64.09
2018-06-09T19:09:56.238Z,63.96
2018-06-09T19:12:23.907Z,65.12
2018-06-09T19:14:51.634Z,66.48
2018-06-09T19:17:19.258Z,66.64
2018-06-09T19:19:47.064Z,65.99
2018-06-09T19:22:14.675Z,65.60
2018-06-09T19:24:42.371Z,66.11
2018-06-09T19:27:10.030Z,64.16
2018-06-09T19:29:37.722Z,65.29
2018-06-09T19:32:05.497Z,66.53
2018-06-09T19:34:33.168Z,66.88
2018-06-09T19:37:00.830Z,68.14
2018-06-09T19:39:28.499Z,67.43
2018-06-09T19:41:56.158Z,68.60
2018-06-09T19:44:23.847Z,68.46
2018-06-09T19:46:51.434Z,67.49
2018-06-09T19:49:19.531Z,66.87
2018-06-09T19:51:47.229Z,66.79
2018-06-09T19:54:14.881Z,67.48
2018-06-09T19:56:42.479Z,67.22
2018-06-09T19:59:10.202Z,67.47
2018-06-09T20:01:37.939Z,67.36
2018-06-09T20:04:05.608Z,66.14
2018-06-09T20:06:33.282Z,67.03
2018-06-09T20:09:01.025Z,66.84
2018-06-09T20:11:28.738Z,66.71
2018-06-09T20:13:56.542Z,67.10
2018-06-09T20:16:24.192Z,66.15
2018-06-09T20:18:51.919Z,66.93
2018-06-09T20:21:19.713Z,67.04
2018-06-09T20:23:47.354Z,67.29
2018-06-09T20:26:15.037Z,66.24
2018-06-09T20:28:42.833Z,67.44
2018-06-09T20:31:10.551Z,65.65
2018-06-09T20:33:38.210Z,66.97
2018-06-09T20:36:06.122Z,67.12
2018-06-09T20:38:33.820Z,67.31
2018-06-09T20:41:01.592Z,66.54
2018-06-09T20:43:30.039Z,66.57
2018-06-09T20:45:57.778Z,66.46
2018-06-09T20:48:25.467Z,66.20
2018-06-09T20:50:53.304Z,67.62
2018-06-09T20:53:20.946Z,68.57
2018-06-09T20:55:48.631Z,68.17
2018-06-09T20:58:16.307Z,68.53
2018-06-09T21:00:44.024Z,68.76
2018-06-09T21:03:11.640Z,70.11
2018-06-09T21:05:39.621Z,70.03
2018-06-09T21:08:07.300Z,70.82
2018-06-09T21:10:34.944Z,70.50
2018-06-09T21:13:02.892Z,70.81
2018-06-09T21:15:30.534Z,70.95
2018-06-09T21:17:58.186Z,70.85
2018-06-09T21:20:25.793Z,70.53
2018-06-09T21:22:53.373Z,70.54
2018-06-09T21:25:21.059Z,70.61
2018-06-09T21:27:54.789Z,70.62
2018-06-09T21:30:28.720Z,69.00
2018-06-09T21:33:02.323Z,69.06
2018-06-09T21:36:10.152Z,69.67
2018-06-09T21:38:42.813Z,70.15
2018-06-09T21:41:16.462Z,70.19
2018-06-09T21:43:49.909Z,69.12
2018-06-09T21:46:23.395Z,67.47
2018-06-09T21:48:51.005Z,66.99
2018-06-09T21:51:18.615Z,65.60
2018-06-09T21:53:46.183Z,65.33
2018-06-09T21:56:14.017Z,64.76
2018-06-09T21:58:41.669Z,65.08
2018-06-09T22:01:09.277Z,65.39
2018-06-09T22:03:36.838Z,65.40
2018-06-09T22:06:05.413Z,65.23
2018-06-09T22:08:33.028Z,66.33
2018-06-09T22:11:00.756Z,66.29
2018-06-09T22:13:28.331Z,67.09
2018-06-09T22:15:55.969Z,65.30
2018-06-09T22:18:23.634Z,64.64
2018-06-09T22:20:51.265Z,64.05
2018-06-09T22:23:18.853Z,63.81
2018-06-09T22:26:02.522Z,65.24
2018-06-09T22:28:30.160Z,65.37
2018-06-09T22:30:57.743Z,66.55
2018-06-09T22:33:25.313Z,66.18
2018-06-09T22:35:52.946Z,65.39
2018-06-09T22:38:20.573Z,66.31
2018-06-09T22:40:48.146Z,68.22
2018-06-09T22:43:15.795Z,68.84
2018-06-09T22:45:43.368Z,68.16
2018-06-09T22:48:10.938Z,69.08
2018-06-09T22:50:38.504Z,69.84
2018-06-09T22:53:06.197Z,70.03
2018-06-09T22:55:33.761Z,71.07
2018-06-09T22:58:01.449Z,71.05
2018-06-09T23:00:47.343Z,71.41
2018-06-09T23:03:16.001Z,72.20
2018-06-09T23:05:45.756Z,71.53
2018-06-09T23:08:13.297Z,72.15
2018-06-09T23:10:40.852Z,73.05
2018-06-09T23:13:08.477Z,72.72
2018-06-09T23:15:36.077Z,72.59
2018-06-09T23:18:03.754Z,72.72
2018-06-09T23:20:32.282Z,71.70
2018-06-09T23:22:59.835Z,72.14
2018-06-09T23:25:27.440Z,71.48
2018-06-09T23:27:55.577Z,72.12
2018-06-09T23:30:23.112Z,72.00
2018-06-09T23:32:51.042Z,72.95
2018-06-09T23:35:18.692Z,73.16
2018-06-09T23:37:46.240Z,72.22
2018-06-09T23:40:13.937Z,72.98
2018-06-09T23:42:41.572Z,72.44
2018-06-09T23:45:09.194Z,72.51
2018-06-09T23:47:36.862Z,73.53
2018-06-09T23:50:04.586Z,74.06
2018-06-09T23:52:32.307Z,74.00
2018-06-09T23:54:59.889Z,73.83
2018-06-09T23:57:27.471Z,73.51
2018-06-09T23:59:55.054Z,74.37
